sensor_id;sensor_type;location;lat;lon;timestamp;temperature;humidity
30467;DHT22;17258;52.560;13.046;2023-04-08T00:00:08;11.20;53.70
30467;DHT22;17258;52.560;13.046;2023-04-08T00:10:09;11.30;53.80
30467;DHT22;17258;52.560;13.046;2023-04-08T00:20:09;11.30;53.90
30467;DHT22;17258;52.560;13.046;2023-04-08T00:30:10;11.20;53.80
30467;DHT22;17258;52.560;13.046;2023-04-08T00:40:11;11.30;53.90
30467;DHT22;17258;52.560;13.046;2023-04-08T00:50:12;11.20;54.00
30467;DHT22;17258;52.560;13.046;2023-04-08T01:00:13;11.20;54.00
30467;DHT22;17258;52.560;13.046;2023-04-08T01:10:21;11.20;54.10
30467;DHT22;17258;52.560;13.046;2023-04-08T01:20:24;11.20;54.40
30467;DHT22;17258;52.560;13.046;2023-04-08T01:30:27;11.20;54.30
30467;DHT22;17258;52.560;13.046;2023-04-08T01:40:30;11.20;54.30
30467;DHT22;17258;52.560;13.046;2023-04-08T01:50:32;11.20;54.30
30467;DHT22;17258;52.560;13.046;2023-04-08T02:00:34;11.20;54.40
30467;DHT22;17258;52.560;13.046;2023-04-08T02:10:36;11.30;54.50
30467;DHT22;17258;52.560;13.046;2023-04-08T02:20:38;11.20;54.50
30467;DHT22;17258;52.560;13.046;2023-04-08T02:30:49;11.20;54.50
30467;DHT22;17258;52.560;13.046;2023-04-08T02:40:50;11.20;54.90
30467;DHT22;17258;52.560;13.046;2023-04-08T02:50:51;11.20;54.70
30467;DHT22;17258;52.560;13.046;2023-04-08T03:00:52;11.20;54.70
30467;DHT22;17258;52.560;13.046;2023-04-08T03:10:52;11.20;54.80
30467;DHT22;17258;52.560;13.046;2023-04-08T03:20:53;11.20;54.90
30467;DHT22;17258;52.560;13.046;2023-04-08T03:30:54;11.20;54.90
30467;DHT22;17258;52.560;13.046;2023-04-08T03:40:54;11.20;54.90
30467;DHT22;17258;52.560;13.046;2023-04-08T03:50:55;11.20;54.90
30467;DHT22;17258;52.560;13.046;2023-04-08T04:00:56;11.20;55.00
30467;DHT22;17258;52.560;13.046;2023-04-08T04:10:58;11.20;55.00
30467;DHT22;17258;52.560;13.046;2023-04-08T04:20:59;11.20;55.20
30467;DHT22;17258;52.560;13.046;2023-04-08T04:30:59;11.20;55.20
30467;DHT22;17258;52.560;13.046;2023-04-08T04:41:00;11.20;55.20
30467;DHT22;17258;52.560;13.046;2023-04-08T04:51:01;11.20;55.30
30467;DHT22;17258;52.560;13.046;2023-04-08T05:01:06;11.20;55.40
30467;DHT22;17258;52.560;13.046;2023-04-08T05:11:10;11.20;55.50
30467;DHT22;17258;52.560;13.046;2023-04-08T05:21:10;11.20;55.60
30467;DHT22;17258;52.560;13.046;2023-04-08T05:31:11;11.30;55.60
30467;DHT22;17258;52.560;13.046;2023-04-08T05:41:12;11.30;55.60
30467;DHT22;17258;52.560;13.046;2023-04-08T05:51:13;11.30;55.60
30467;DHT22;17258;52.560;13.046;2023-04-08T06:01:14;11.40;55.70
30467;DHT22;17258;52.560;13.046;2023-04-08T06:11:15;11.40;55.80
30467;DHT22;17258;52.560;13.046;2023-04-08T06:21:16;11.50;55.80
30467;DHT22;17258;52.560;13.046;2023-04-08T06:31:16;11.60;56.00
30467;DHT22;17258;52.560;13.046;2023-04-08T06:41:17;11.60;56.00
30467;DHT22;17258;52.560;13.046;2023-04-08T06:51:18;11.70;56.10
30467;DHT22;17258;52.560;13.046;2023-04-08T07:01:18;11.80;56.20
30467;DHT22;17258;52.560;13.046;2023-04-08T07:11:19;11.90;56.20
30467;DHT22;17258;52.560;13.046;2023-04-08T07:21:20;12.00;56.30
30467;DHT22;17258;52.560;13.046;2023-04-08T07:31:21;12.10;56.40
30467;DHT22;17258;52.560;13.046;2023-04-08T07:41:21;12.30;56.40
30467;DHT22;17258;52.560;13.046;2023-04-08T07:51:22;12.40;56.30
30467;DHT22;17258;52.560;13.046;2023-04-08T08:01:23;12.50;56.30
30467;DHT22;17258;52.560;13.046;2023-04-08T08:11:23;12.60;56.40
30467;DHT22;17258;52.560;13.046;2023-04-08T08:21:26;12.70;56.40
30467;DHT22;17258;52.560;13.046;2023-04-08T08:31:27;12.90;56.50
30467;DHT22;17258;52.560;13.046;2023-04-08T08:41:32;13.00;56.60
30467;DHT22;17258;52.560;13.046;2023-04-08T08:51:35;13.10;56.70
30467;DHT22;17258;52.560;13.046;2023-04-08T09:01:39;13.30;56.60
30467;DHT22;17258;52.560;13.046;2023-04-08T09:11:45;13.50;56.70
30467;DHT22;17258;52.560;13.046;2023-04-08T09:22:04;13.70;56.60
30467;DHT22;17258;52.560;13.046;2023-04-08T09:32:09;13.90;57.00
30467;DHT22;17258;52.560;13.046;2023-04-08T09:42:10;14.00;56.50
30467;DHT22;17258;52.560;13.046;2023-04-08T09:52:37;14.10;56.40
30467;DHT22;17258;52.560;13.046;2023-04-08T10:13:10;14.40;56.70
30467;DHT22;17258;52.560;13.046;2023-04-08T10:23:15;14.50;56.50
30467;DHT22;17258;52.560;13.046;2023-04-08T10:43:24;14.90;56.80
30467;DHT22;17258;52.560;13.046;2023-04-08T10:53:25;15.10;56.80
30467;DHT22;17258;52.560;13.046;2023-04-08T11:03:31;15.40;56.60
30467;DHT22;17258;52.560;13.046;2023-04-08T11:13:34;15.70;56.50
30467;DHT22;17258;52.560;13.046;2023-04-08T11:23:48;16.00;56.10
30467;DHT22;17258;52.560;13.046;2023-04-08T11:33:52;16.10;55.90
30467;DHT22;17258;52.560;13.046;2023-04-08T11:43:55;16.20;55.80
30467;DHT22;17258;52.560;13.046;2023-04-08T11:53:56;16.30;55.50
30467;DHT22;17258;52.560;13.046;2023-04-08T12:03:58;16.40;55.40
30467;DHT22;17258;52.560;13.046;2023-04-08T12:14:00;16.60;55.80
30467;DHT22;17258;52.560;13.046;2023-04-08T12:24:01;16.80;55.70
30467;DHT22;17258;52.560;13.046;2023-04-08T12:34:01;17.00;55.60
30467;DHT22;17258;52.560;13.046;2023-04-08T12:44:02;17.20;55.40
30467;DHT22;17258;52.560;13.046;2023-04-08T12:54:03;17.30;55.10
30467;DHT22;17258;52.560;13.046;2023-04-08T13:04:04;17.50;55.00
30467;DHT22;17258;52.560;13.046;2023-04-08T13:14:05;17.70;54.80
30467;DHT22;17258;52.560;13.046;2023-04-08T13:24:05;17.90;54.80
30467;DHT22;17258;52.560;13.046;2023-04-08T13:34:06;18.00;54.40
30467;DHT22;17258;52.560;13.046;2023-04-08T13:44:07;18.10;54.30
30467;DHT22;17258;52.560;13.046;2023-04-08T13:54:07;18.20;54.60
30467;DHT22;17258;52.560;13.046;2023-04-08T14:04:08;18.60;54.50
30467;DHT22;17258;52.560;13.046;2023-04-08T14:14:08;18.80;53.80
30467;DHT22;17258;52.560;13.046;2023-04-08T14:24:09;18.90;53.70
30467;DHT22;17258;52.560;13.046;2023-04-08T14:34:10;19.00;53.40
30467;DHT22;17258;52.560;13.046;2023-04-08T14:44:10;19.00;53.20
30467;DHT22;17258;52.560;13.046;2023-04-08T14:54:11;19.10;53.40
30467;DHT22;17258;52.560;13.046;2023-04-08T15:04:13;19.20;52.90
30467;DHT22;17258;52.560;13.046;2023-04-08T15:14:14;19.20;52.70
30467;DHT22;17258;52.560;13.046;2023-04-08T15:24:14;19.30;52.90
30467;DHT22;17258;52.560;13.046;2023-04-08T15:34:15;19.40;52.80
30467;DHT22;17258;52.560;13.046;2023-04-08T15:44:16;19.60;52.30
30467;DHT22;17258;52.560;13.046;2023-04-08T15:54:16;19.50;52.20
30467;DHT22;17258;52.560;13.046;2023-04-08T16:04:17;19.50;52.30
30467;DHT22;17258;52.560;13.046;2023-04-08T16:14:18;19.50;52.00
30467;DHT22;17258;52.560;13.046;2023-04-08T16:24:18;19.40;51.80
30467;DHT22;17258;52.560;13.046;2023-04-08T16:34:19;19.30;51.90
30467;DHT22;17258;52.560;13.046;2023-04-08T16:44:20;19.30;51.90
30467;DHT22;17258;52.560;13.046;2023-04-08T16:54:21;19.10;51.50
30467;DHT22;17258;52.560;13.046;2023-04-08T17:04:22;18.80;51.40
30467;DHT22;17258;52.560;13.046;2023-04-08T17:14:22;18.50;51.40
30467;DHT22;17258;52.560;13.046;2023-04-08T17:24:23;18.30;51.70
30467;DHT22;17258;52.560;13.046;2023-04-08T17:34:23;18.00;51.80
30467;DHT22;17258;52.560;13.046;2023-04-08T17:44:25;17.80;51.80
30467;DHT22;17258;52.560;13.046;2023-04-08T17:54:28;17.50;51.90
30467;DHT22;17258;52.560;13.046;2023-04-08T18:04:32;17.20;51.90
30467;DHT22;17258;52.560;13.046;2023-04-08T18:14:33;16.90;52.00
30467;DHT22;17258;52.560;13.046;2023-04-08T18:24:35;16.50;52.10
30467;DHT22;17258;52.560;13.046;2023-04-08T18:34:36;16.30;52.40
30467;DHT22;17258;52.560;13.046;2023-04-08T18:44:38;16.00;52.70
30467;DHT22;17258;52.560;13.046;2023-04-08T18:54:38;15.80;52.80
30467;DHT22;17258;52.560;13.046;2023-04-08T19:04:39;15.70;52.90
30467;DHT22;17258;52.560;13.046;2023-04-08T19:14:40;15.60;53.20
30467;DHT22;17258;52.560;13.046;2023-04-08T19:24:41;15.50;53.10
30467;DHT22;17258;52.560;13.046;2023-04-08T19:34:41;15.40;52.90
30467;DHT22;17258;52.560;13.046;2023-04-08T19:44:42;15.30;52.70
30467;DHT22;17258;52.560;13.046;2023-04-08T19:54:43;15.10;52.60
30467;DHT22;17258;52.560;13.046;2023-04-08T20:04:44;15.00;52.60
30467;DHT22;17258;52.560;13.046;2023-04-08T20:14:45;14.80;52.80
30467;DHT22;17258;52.560;13.046;2023-04-08T20:24:46;14.70;52.80
30467;DHT22;17258;52.560;13.046;2023-04-08T20:34:47;14.60;52.80
30467;DHT22;17258;52.560;13.046;2023-04-08T20:44:48;14.50;52.80
30467;DHT22;17258;52.560;13.046;2023-04-08T20:54:49;14.40;52.80
30467;DHT22;17258;52.560;13.046;2023-04-08T21:04:50;14.30;52.70
30467;DHT22;17258;52.560;13.046;2023-04-08T21:14:50;14.20;52.70
30467;DHT22;17258;52.560;13.046;2023-04-08T21:24:51;14.20;52.70
30467;DHT22;17258;52.560;13.046;2023-04-08T21:34:52;14.00;52.60
30467;DHT22;17258;52.560;13.046;2023-04-08T21:44:53;13.80;52.60
30467;DHT22;17258;52.560;13.046;2023-04-08T21:54:54;13.70;52.80
30467;DHT22;17258;52.560;13.046;2023-04-08T22:04:54;13.50;52.80
30467;DHT22;17258;52.560;13.046;2023-04-08T22:14:56;13.40;53.00
30467;DHT22;17258;52.560;13.046;2023-04-08T22:24:56;13.40;53.10
30467;DHT22;17258;52.560;13.046;2023-04-08T22:34:57;13.30;53.10
30467;DHT22;17258;52.560;13.046;2023-04-08T22:44:58;13.20;53.00
30467;DHT22;17258;52.560;13.046;2023-04-08T22:54:59;13.00;52.90
30467;DHT22;17258;52.560;13.046;2023-04-08T23:05:00;12.90;52.90
30467;DHT22;17258;52.560;13.046;2023-04-08T23:15:00;12.70;52.80
30467;DHT22;17258;52.560;13.046;2023-04-08T23:25:02;12.50;52.80
30467;DHT22;17258;52.560;13.046;2023-04-08T23:35:03;12.20;52.80
30467;DHT22;17258;52.560;13.046;2023-04-08T23:45:04;12.00;52.80
30467;DHT22;17258;52.560;13.046;2023-04-08T23:55:05;11.70;52.90
